Terminal Aerodrome Forecast
Issued by NWS

Home | Current Version | Previous Version | Text Only | Print | Product List | Glossary On
Versions: 1 2 3 4 5 6 7 8 9 10 11 12 13 14 15 16 17 18 19 20 21 22 23
000
FTUS44 KTSA 200407 AAB
TAFMLC
TAF AMD
KMLC 200407Z 2004/2024 18007G16KT P6SM BKN014 BKN070
     FM200500 17006KT P6SM OVC015
     FM200900 19005KT 5SM BR OVC004
     FM201800 20014G20KT P6SM SCT250=

USA.gov is the U.S. government's official web portal to all federal, state and local government web resources and services.